createdAt,value
2022-08-22T00:00:49.886Z,983.074
2022-08-22T00:03:17.129Z,983.038
2022-08-22T00:04:50.113Z,983.052
2022-08-22T00:06:50.235Z,983.043
2022-08-22T00:08:50.025Z,983.067
2022-08-22T00:10:50.393Z,983.087
2022-08-22T00:12:50.277Z,983.077
2022-08-22T00:14:50.338Z,983.077
2022-08-22T00:16:53.724Z,983.036
2022-08-22T00:18:50.468Z,983.036
2022-08-22T00:20:50.254Z,983.042
2022-08-22T00:22:51.152Z,983.051
2022-08-22T00:24:50.349Z,983.028
2022-08-22T00:26:50.753Z,983.021
2022-08-22T00:28:50.679Z,983.031
2022-08-22T00:30:50.636Z,983.044
2022-08-22T00:32:50.408Z,983.041
2022-08-22T00:34:50.149Z,983.070
2022-08-22T00:36:50.278Z,983.053
2022-08-22T00:38:50.274Z,983.092
2022-08-22T00:40:50.389Z,983.089
2022-08-22T00:42:50.620Z,983.076
2022-08-22T00:44:50.667Z,983.122
2022-08-22T00:46:50.603Z,983.120
2022-08-22T00:48:50.690Z,983.070
2022-08-22T00:50:50.774Z,983.100
2022-08-22T00:52:49.855Z,983.086
2022-08-22T00:54:50.458Z,983.074
2022-08-22T00:56:49.857Z,983.052
2022-08-22T00:58:50.056Z,983.079
2022-08-22T01:00:50.367Z,983.014
2022-08-22T01:02:53.203Z,982.992
2022-08-22T01:04:50.551Z,982.997
2022-08-22T01:06:49.946Z,982.998
2022-08-22T01:08:49.804Z,982.984
2022-08-22T01:10:50.736Z,983.004
2022-08-22T01:12:50.716Z,983.001
2022-08-22T01:14:50.779Z,982.988
2022-08-22T01:16:49.860Z,982.979
2022-08-22T01:18:50.668Z,983.049
2022-08-22T01:20:50.404Z,983.039
2022-08-22T01:22:50.472Z,983.002
2022-08-22T01:24:50.388Z,983.000
2022-08-22T01:26:49.917Z,983.037
2022-08-22T01:28:50.709Z,983.018
2022-08-22T01:30:50.637Z,983.059
2022-08-22T01:32:57.477Z,983.068
2022-08-22T01:34:50.808Z,983.048
2022-08-22T01:36:49.871Z,983.052
2022-08-22T01:38:52.869Z,983.056
2022-08-22T01:40:54.611Z,983.086
2022-08-22T01:42:50.417Z,983.030
2022-08-22T01:44:50.485Z,983.043
2022-08-22T01:46:50.752Z,983.086
2022-08-22T01:48:50.721Z,983.064
2022-08-22T01:50:50.539Z,983.051
2022-08-22T01:52:50.491Z,983.049
2022-08-22T01:54:50.437Z,983.053
2022-08-22T01:56:50.688Z,983.070
2022-08-22T01:58:51.540Z,983.094
2022-08-22T02:00:50.721Z,983.119
2022-08-22T02:02:50.789Z,983.113
2022-08-22T02:04:49.965Z,983.110
2022-08-22T02:06:50.428Z,983.107
2022-08-22T02:08:49.846Z,983.145
2022-08-22T02:10:50.627Z,983.115
2022-08-22T02:12:50.584Z,983.147
2022-08-22T02:14:50.475Z,983.137
2022-08-22T02:16:50.812Z,983.186
2022-08-22T02:18:50.665Z,983.156
2022-08-22T02:20:50.717Z,983.140
2022-08-22T02:22:49.945Z,983.157
2022-08-22T02:24:49.905Z,983.156
2022-08-22T02:26:50.164Z,983.169
2022-08-22T02:28:58.128Z,983.137
2022-08-22T02:30:50.028Z,983.147
2022-08-22T02:32:49.993Z,983.179
2022-08-22T02:34:50.628Z,983.164
2022-08-22T02:36:50.768Z,983.156
2022-08-22T02:38:50.676Z,983.146
2022-08-22T02:40:50.517Z,983.189
2022-08-22T02:42:50.528Z,983.157
2022-08-22T02:44:50.557Z,983.161
2022-08-22T02:46:49.955Z,983.161
2022-08-22T02:48:49.823Z,983.180
2022-08-22T02:50:52.892Z,983.201
2022-08-22T02:52:50.768Z,983.205
2022-08-22T02:54:50.659Z,983.219
2022-08-22T02:56:52.769Z,983.230
2022-08-22T02:58:50.544Z,983.239
2022-08-22T03:00:50.746Z,983.197
2022-08-22T03:02:50.160Z,983.239
2022-08-22T03:04:49.790Z,983.229
2022-08-22T03:06:50.060Z,983.222
2022-08-22T03:08:51.352Z,983.268
2022-08-22T03:10:50.184Z,983.269
2022-08-22T03:12:49.919Z,983.279
2022-08-22T03:14:49.924Z,983.267
2022-08-22T03:16:50.202Z,983.319
2022-08-22T03:18:50.137Z,983.302
2022-08-22T03:20:50.058Z,983.258
2022-08-22T03:22:50.162Z,983.301
2022-08-22T03:24:50.060Z,983.296
2022-08-22T03:26:50.342Z,983.286
2022-08-22T03:29:00.517Z,983.281
2022-08-22T03:30:50.442Z,983.257
2022-08-22T03:32:50.405Z,983.280
2022-08-22T03:34:49.888Z,983.267
2022-08-22T03:36:50.222Z,983.288
2022-08-22T03:38:50.304Z,983.294
2022-08-22T03:40:50.391Z,983.298
2022-08-22T03:42:50.323Z,983.329
2022-08-22T03:44:50.140Z,983.333
2022-08-22T03:46:50.246Z,983.355
2022-08-22T03:48:50.253Z,983.345
2022-08-22T03:50:54.844Z,983.406
2022-08-22T03:52:50.801Z,983.376
2022-08-22T03:54:50.732Z,983.414
2022-08-22T03:57:00.699Z,983.424
2022-08-22T03:58:50.668Z,983.493
2022-08-22T04:00:56.930Z,983.486
2022-08-22T04:02:50.038Z,983.482
2022-08-22T04:04:50.792Z,983.480
2022-08-22T04:06:56.729Z,983.510
2022-08-22T04:08:50.330Z,983.560
2022-08-22T04:10:50.275Z,983.549
2022-08-22T04:12:50.657Z,983.534
2022-08-22T04:14:50.471Z,983.547
2022-08-22T04:16:49.847Z,983.570
2022-08-22T04:18:51.280Z,983.598
2022-08-22T04:20:49.892Z,983.640
2022-08-22T04:22:50.435Z,983.650
2022-08-22T04:24:52.811Z,983.618
2022-08-22T04:26:50.174Z,983.616
2022-08-22T04:28:50.064Z,983.645
2022-08-22T04:30:50.033Z,983.626
2022-08-22T04:32:50.026Z,983.615
2022-08-22T04:34:50.384Z,983.623
2022-08-22T04:36:50.563Z,983.592
2022-08-22T04:38:50.774Z,983.639
2022-08-22T04:40:50.704Z,983.636
2022-08-22T04:42:50.665Z,983.636
2022-08-22T04:44:50.574Z,983.699
2022-08-22T04:46:49.814Z,983.720
2022-08-22T04:48:50.650Z,983.700
2022-08-22T04:50:50.557Z,983.676
2022-08-22T04:52:50.277Z,983.691
2022-08-22T04:54:50.179Z,983.710
2022-08-22T04:56:50.361Z,983.675
2022-08-22T04:58:50.175Z,983.702
2022-08-22T05:00:50.071Z,983.759
2022-08-22T05:02:50.643Z,983.734
2022-08-22T05:04:50.002Z,983.772
2022-08-22T05:06:49.970Z,983.809
2022-08-22T05:08:54.312Z,983.840
2022-08-22T05:10:50.213Z,983.851
2022-08-22T05:12:50.145Z,983.807
2022-08-22T05:14:54.787Z,983.858
2022-08-22T05:16:49.846Z,983.796
2022-08-22T05:18:50.063Z,983.839
2022-08-22T05:20:49.921Z,983.849
2022-08-22T05:22:50.718Z,983.899
2022-08-22T05:24:50.518Z,983.862
2022-08-22T05:26:50.617Z,983.896
2022-08-22T05:28:53.764Z,983.916
2022-08-22T05:30:50.668Z,983.901
2022-08-22T05:32:50.728Z,983.971
2022-08-22T05:34:51.699Z,983.915
2022-08-22T05:36:50.049Z,983.938
2022-08-22T05:38:49.969Z,983.936
2022-08-22T05:40:49.931Z,983.960
2022-08-22T05:42:50.747Z,983.945
2022-08-22T05:44:50.622Z,983.977
2022-08-22T05:46:49.807Z,983.994
2022-08-22T05:48:50.662Z,983.993
2022-08-22T05:50:51.420Z,984.029
2022-08-22T05:52:50.357Z,983.997
2022-08-22T05:54:50.455Z,984.008
2022-08-22T05:56:50.689Z,984.020
2022-08-22T05:58:50.779Z,983.979
2022-08-22T06:00:50.632Z,984.035
2022-08-22T06:02:50.763Z,984.046
2022-08-22T06:04:50.323Z,984.037
2022-08-22T06:06:50.443Z,984.029
2022-08-22T06:08:50.212Z,984.008
2022-08-22T06:10:50.189Z,984.036
2022-08-22T06:12:50.308Z,984.014
2022-08-22T06:14:50.630Z,984.040
2022-08-22T06:16:49.893Z,984.048
2022-08-22T06:18:49.845Z,984.046
2022-08-22T06:20:50.691Z,984.072
2022-08-22T06:22:50.440Z,984.060
2022-08-22T06:24:50.438Z,984.097
2022-08-22T06:26:50.625Z,984.098
2022-08-22T06:28:55.983Z,984.110
2022-08-22T06:30:50.266Z,984.108
2022-08-22T06:33:01.268Z,984.099
2022-08-22T06:34:50.410Z,984.091
2022-08-22T06:36:50.785Z,984.117
2022-08-22T06:38:50.699Z,984.077
2022-08-22T06:40:50.679Z,984.057
2022-08-22T06:42:50.693Z,984.030
2022-08-22T06:44:50.642Z,984.060
2022-08-22T06:46:50.264Z,984.060
2022-08-22T06:48:50.341Z,984.045
2022-08-22T06:50:50.390Z,984.031
2022-08-22T06:52:50.366Z,984.037
2022-08-22T06:54:50.309Z,983.983
2022-08-22T06:56:50.771Z,983.994
2022-08-22T06:58:50.762Z,984.018
2022-08-22T07:01:15.761Z,983.999
2022-08-22T07:02:50.159Z,983.956
2022-08-22T07:04:50.719Z,983.963
2022-08-22T07:06:49.939Z,983.949
2022-08-22T07:08:49.974Z,983.969
2022-08-22T07:10:50.690Z,983.969
2022-08-22T07:12:50.706Z,983.972
2022-08-22T07:14:50.797Z,983.977
2022-08-22T07:16:49.808Z,983.987
2022-08-22T07:18:50.744Z,983.960
2022-08-22T07:20:55.500Z,983.921
2022-08-22T07:22:54.413Z,983.921
2022-08-22T07:24:50.349Z,983.936
2022-08-22T07:26:49.984Z,983.944
2022-08-22T07:28:58.902Z,983.946
2022-08-22T07:30:50.390Z,983.935
2022-08-22T07:32:50.588Z,983.959
2022-08-22T07:34:50.078Z,983.949
2022-08-22T07:36:50.448Z,983.923
2022-08-22T07:38:50.441Z,983.927
2022-08-22T07:40:50.560Z,983.902
2022-08-22T07:42:50.512Z,983.908
2022-08-22T07:44:50.722Z,983.941
2022-08-22T07:46:49.898Z,983.957
2022-08-22T07:49:10.101Z,983.936
2022-08-22T07:50:50.775Z,983.923
2022-08-22T07:52:50.627Z,983.942
2022-08-22T07:54:50.476Z,983.942
2022-08-22T07:56:50.794Z,983.972
2022-08-22T07:58:49.854Z,983.988
2022-08-22T08:00:50.717Z,983.988
2022-08-22T08:02:50.770Z,983.910
2022-08-22T08:04:50.167Z,983.921
2022-08-22T08:06:50.315Z,983.898
2022-08-22T08:08:50.253Z,983.885
2022-08-22T08:10:50.090Z,983.834
2022-08-22T08:13:02.967Z,983.836
2022-08-22T08:14:50.624Z,983.895
2022-08-22T08:16:50.140Z,983.845
2022-08-22T08:18:50.048Z,983.901
2022-08-22T08:20:50.157Z,983.894
2022-08-22T08:22:50.314Z,983.863
2022-08-22T08:24:50.847Z,983.911
2022-08-22T08:26:50.507Z,983.921
2022-08-22T08:28:50.382Z,983.930
2022-08-22T08:30:50.428Z,983.900
2022-08-22T08:32:57.386Z,983.911
2022-08-22T08:34:51.399Z,983.862
2022-08-22T08:36:50.684Z,983.862
2022-08-22T08:38:50.640Z,983.794
2022-08-22T08:40:50.364Z,983.793
2022-08-22T08:42:50.589Z,983.793
2022-08-22T08:44:50.540Z,983.823
2022-08-22T08:46:56.221Z,983.823
2022-08-22T08:48:50.184Z,983.852
2022-08-22T08:50:50.165Z,983.849
2022-08-22T08:52:53.289Z,983.821
2022-08-22T08:54:50.296Z,983.864
2022-08-22T08:56:55.280Z,983.864
2022-08-22T08:58:51.164Z,983.861
2022-08-22T09:00:50.713Z,983.872
2022-08-22T09:02:50.195Z,983.845
2022-08-22T09:04:50.705Z,983.774
2022-08-22T09:06:58.715Z,983.800
2022-08-22T09:08:56.122Z,983.816
2022-08-22T09:10:51.507Z,983.802
2022-08-22T09:13:11.976Z,983.757
2022-08-22T09:14:50.191Z,983.734
2022-08-22T09:16:52.158Z,983.744
2022-08-22T09:18:50.177Z,983.716
2022-08-22T09:20:50.244Z,983.716
2022-08-22T09:22:51.196Z,983.777
2022-08-22T09:24:50.136Z,983.794
2022-08-22T09:26:50.259Z,983.811
2022-08-22T09:28:50.072Z,983.786
2022-08-22T09:30:54.582Z,983.777
2022-08-22T09:32:50.345Z,983.801
2022-08-22T09:34:50.773Z,983.802
2022-08-22T09:36:49.990Z,983.773
2022-08-22T09:38:49.967Z,983.765
2022-08-22T09:40:50.013Z,983.728
2022-08-22T09:42:49.983Z,983.682
2022-08-22T09:44:50.770Z,983.695
2022-08-22T09:46:50.017Z,983.734
2022-08-22T09:48:51.443Z,983.683
2022-08-22T09:51:28.500Z,983.681
2022-08-22T09:52:50.675Z,983.741
2022-08-22T09:54:50.527Z,983.759
2022-08-22T09:56:51.509Z,983.744
2022-08-22T09:58:50.276Z,983.747
2022-08-22T10:00:55.540Z,983.711
2022-08-22T10:02:52.111Z,983.670
2022-08-22T10:04:50.416Z,983.701
2022-08-22T10:06:49.846Z,983.661
2022-08-22T10:08:50.760Z,983.710
2022-08-22T10:10:49.883Z,983.730
2022-08-22T10:12:50.728Z,983.657
2022-08-22T10:14:51.450Z,983.691
2022-08-22T10:16:49.806Z,983.751
2022-08-22T10:19:00.811Z,983.798
2022-08-22T10:20:50.470Z,983.788
2022-08-22T10:22:49.921Z,983.765
2022-08-22T10:24:51.460Z,983.765
2022-08-22T10:26:50.621Z,983.781
2022-08-22T10:28:51.897Z,983.745
2022-08-22T10:30:50.159Z,983.759
2022-08-22T10:32:50.040Z,983.817
2022-08-22T10:34:50.594Z,983.861
2022-08-22T10:36:50.608Z,983.821
2022-08-22T10:38:50.744Z,983.862
2022-08-22T10:40:50.665Z,983.867
2022-08-22T10:42:54.019Z,983.850
2022-08-22T10:44:51.746Z,983.852
2022-08-22T10:46:52.172Z,983.857
2022-08-22T10:48:50.343Z,983.897
2022-08-22T10:50:50.435Z,983.851
2022-08-22T10:52:50.294Z,983.839
2022-08-22T10:54:50.523Z,983.856
2022-08-22T10:56:49.813Z,983.842
2022-08-22T10:58:50.936Z,983.807
2022-08-22T11:00:51.029Z,983.824
2022-08-22T11:02:53.687Z,983.824
2022-08-22T11:04:50.416Z,983.816
2022-08-22T11:06:50.605Z,983.785
2022-08-22T11:08:50.538Z,983.780
2022-08-22T11:10:52.443Z,983.726
2022-08-22T11:12:50.680Z,983.689
2022-08-22T11:14:50.757Z,983.669
2022-08-22T11:16:55.739Z,983.712
2022-08-22T11:19:14.865Z,983.752
2022-08-22T11:20:51.809Z,983.665
2022-08-22T11:22:56.138Z,983.668
2022-08-22T11:25:04.136Z,983.623
2022-08-22T11:26:49.872Z,983.578
2022-08-22T11:28:51.215Z,983.592
2022-08-22T11:30:50.749Z,983.544
2022-08-22T11:32:59.903Z,983.485
2022-08-22T11:34:50.724Z,983.429
2022-08-22T11:36:50.622Z,983.380
2022-08-22T11:38:50.738Z,983.357
2022-08-22T11:40:50.726Z,983.374
2022-08-22T11:42:51.568Z,983.318
2022-08-22T11:44:51.443Z,983.254
2022-08-22T11:46:50.637Z,983.264
2022-08-22T11:48:50.765Z,983.167
2022-08-22T11:50:51.095Z,983.162
2022-08-22T11:52:52.246Z,983.127
2022-08-22T11:54:52.057Z,983.162
2022-08-22T11:56:50.578Z,983.194
2022-08-22T11:58:50.586Z,983.178
2022-08-22T12:00:50.630Z,983.178
2022-08-22T12:02:50.497Z,983.161
2022-08-22T12:04:50.270Z,983.099
2022-08-22T12:06:50.609Z,983.085
2022-08-22T12:08:50.379Z,983.109
2022-08-22T12:10:50.808Z,983.073
2022-08-22T12:12:50.570Z,983.037
2022-08-22T12:14:54.946Z,983.047
2022-08-22T12:16:50.203Z,982.970
2022-08-22T12:18:53.420Z,982.989
2022-08-22T12:20:52.540Z,982.989
2022-08-22T12:22:51.041Z,982.961
2022-08-22T12:24:51.255Z,982.941
2022-08-22T12:26:49.935Z,982.947
2022-08-22T12:28:49.925Z,982.906
2022-08-22T12:30:55.203Z,982.852
2022-08-22T12:32:50.245Z,982.852
2022-08-22T12:34:51.090Z,982.799
2022-08-22T12:36:50.172Z,982.840
2022-08-22T12:38:50.651Z,982.789
2022-08-22T12:40:49.905Z,982.839
2022-08-22T12:42:50.639Z,982.734
2022-08-22T12:44:50.639Z,982.675
2022-08-22T12:46:49.962Z,982.623
2022-08-22T12:48:50.089Z,982.599
2022-08-22T12:50:49.902Z,982.552
2022-08-22T12:52:50.933Z,982.579
2022-08-22T12:54:49.972Z,982.595
2022-08-22T12:56:50.381Z,982.559
2022-08-22T12:58:51.606Z,982.552
2022-08-22T13:00:53.012Z,982.575
2022-08-22T13:02:51.461Z,982.611
2022-08-22T13:04:50.763Z,982.603
2022-08-22T13:06:50.287Z,982.574
2022-08-22T13:08:50.575Z,982.557
2022-08-22T13:10:50.432Z,982.522
2022-08-22T13:12:50.510Z,982.466
2022-08-22T13:14:50.673Z,982.520
2022-08-22T13:16:51.971Z,982.489
2022-08-22T13:18:54.241Z,982.526
2022-08-22T13:20:51.067Z,982.542
2022-08-22T13:22:55.707Z,982.542
2022-08-22T13:24:53.021Z,982.491
2022-08-22T13:26:50.660Z,982.462
2022-08-22T13:29:25.987Z,982.462
2022-08-22T13:30:50.656Z,982.433
2022-08-22T13:32:50.724Z,982.447
2022-08-22T13:34:50.082Z,982.515
2022-08-22T13:36:52.447Z,982.544
2022-08-22T13:38:50.515Z,982.553
2022-08-22T13:40:49.942Z,982.627
2022-08-22T13:42:54.461Z,982.562
2022-08-22T13:44:50.405Z,982.526
2022-08-22T13:47:14.480Z,982.474
2022-08-22T13:48:50.543Z,982.534
2022-08-22T13:50:54.242Z,982.559
2022-08-22T13:52:55.592Z,982.574
2022-08-22T13:54:50.342Z,982.574
2022-08-22T13:56:51.434Z,982.556
2022-08-22T13:58:52.210Z,982.519
2022-08-22T14:00:58.446Z,982.493
2022-08-22T14:02:51.566Z,982.490
2022-08-22T14:04:50.171Z,982.467
2022-08-22T14:06:50.583Z,982.435
2022-08-22T14:08:51.365Z,982.376
2022-08-22T14:11:06.847Z,982.433
2022-08-22T14:12:51.445Z,982.389
2022-08-22T14:14:52.721Z,982.414
2022-08-22T14:16:49.985Z,982.370
2022-08-22T14:18:51.129Z,982.370
2022-08-22T14:20:49.991Z,982.330
2022-08-22T14:23:03.934Z,982.374
2022-08-22T14:24:56.184Z,982.315
2022-08-22T14:26:50.576Z,982.305
2022-08-22T14:28:49.793Z,982.341
2022-08-22T14:31:01.883Z,982.360
2022-08-22T14:32:50.567Z,982.402
2022-08-22T14:34:51.721Z,982.407
2022-08-22T14:36:49.883Z,982.388
2022-08-22T14:38:49.825Z,982.400
2022-08-22T14:40:53.812Z,982.391
2022-08-22T14:42:51.021Z,982.394
2022-08-22T14:44:50.858Z,982.362
2022-08-22T14:46:50.969Z,982.378
2022-08-22T14:48:50.221Z,982.343
2022-08-22T14:50:54.500Z,982.341
2022-08-22T14:52:50.631Z,982.365
2022-08-22T14:54:51.274Z,982.289
2022-08-22T14:56:51.244Z,982.324
2022-08-22T14:58:50.269Z,982.252
2022-08-22T15:00:50.411Z,982.316
2022-08-22T15:02:52.133Z,982.289
2022-08-22T15:04:50.810Z,982.290
2022-08-22T15:06:50.126Z,982.310
2022-08-22T15:08:49.968Z,982.221
2022-08-22T15:10:49.881Z,982.286
2022-08-22T15:12:50.627Z,982.293
2022-08-22T15:14:52.900Z,982.266
2022-08-22T15:16:50.007Z,982.252
2022-08-22T15:18:52.956Z,982.224
2022-08-22T15:20:52.594Z,982.224
2022-08-22T15:22:50.567Z,982.186
2022-08-22T15:24:56.456Z,982.178
2022-08-22T15:26:50.695Z,982.192
2022-08-22T15:28:53.683Z,982.186
2022-08-22T15:30:54.392Z,982.191
2022-08-22T15:32:50.071Z,982.173
2022-08-22T15:34:52.695Z,982.154
2022-08-22T15:36:56.079Z,982.196
2022-08-22T15:38:50.073Z,982.132
2022-08-22T15:40:50.389Z,982.159
2022-08-22T15:42:50.700Z,982.173
2022-08-22T15:44:51.092Z,982.152
2022-08-22T15:46:51.296Z,982.097
2022-08-22T15:48:52.753Z,982.071
2022-08-22T15:50:51.735Z,982.075
2022-08-22T15:53:07.187Z,982.117
2022-08-22T15:54:51.641Z,982.087
2022-08-22T15:56:50.449Z,982.036
2022-08-22T15:58:50.457Z,982.044
2022-08-22T16:00:50.469Z,982.029
2022-08-22T16:02:52.565Z,982.008
2022-08-22T16:04:49.910Z,982.004
2022-08-22T16:06:51.509Z,982.003
2022-08-22T16:08:50.472Z,981.961
2022-08-22T16:10:50.551Z,981.997
2022-08-22T16:12:49.871Z,981.992
2022-08-22T16:14:49.964Z,981.979
2022-08-22T16:16:49.957Z,981.965
2022-08-22T16:18:50.691Z,981.977
2022-08-22T16:20:50.695Z,981.947
2022-08-22T16:22:50.515Z,981.986
2022-08-22T16:24:50.409Z,981.967
2022-08-22T16:26:50.590Z,981.964
2022-08-22T16:28:59.291Z,981.921
2022-08-22T16:30:52.652Z,981.951
2022-08-22T16:32:49.919Z,981.953
2022-08-22T16:34:50.350Z,981.903
2022-08-22T16:36:50.633Z,981.971
2022-08-22T16:38:50.610Z,981.983
2022-08-22T16:40:50.695Z,981.997
2022-08-22T16:42:50.570Z,982.014
2022-08-22T16:44:50.435Z,981.974
2022-08-22T16:46:50.641Z,982.008
2022-08-22T16:48:50.391Z,981.960
2022-08-22T16:50:52.606Z,981.993
2022-08-22T16:52:50.495Z,981.977
2022-08-22T16:54:50.417Z,981.981
2022-08-22T16:56:50.735Z,982.040
2022-08-22T16:59:22.772Z,982.033
2022-08-22T17:00:50.137Z,981.980
2022-08-22T17:02:50.078Z,981.994
2022-08-22T17:04:50.157Z,982.001
2022-08-22T17:06:50.178Z,982.012
2022-08-22T17:08:50.224Z,982.044
2022-08-22T17:10:50.059Z,982.014
2022-08-22T17:12:50.188Z,982.053
2022-08-22T17:14:50.130Z,982.081
2022-08-22T17:16:54.506Z,982.126
2022-08-22T17:18:50.327Z,982.081
2022-08-22T17:20:50.154Z,982.090
2022-08-22T17:22:50.009Z,982.093
2022-08-22T17:24:50.753Z,982.113
2022-08-22T17:26:55.469Z,982.125
2022-08-22T17:28:50.233Z,982.144
2022-08-22T17:30:50.273Z,982.166
2022-08-22T17:33:00.272Z,982.135
2022-08-22T17:34:50.567Z,982.175
2022-08-22T17:36:50.772Z,982.186
2022-08-22T17:38:50.741Z,982.185
2022-08-22T17:40:50.583Z,982.189
2022-08-22T17:42:50.453Z,982.211
2022-08-22T17:44:50.320Z,982.193
2022-08-22T17:46:50.566Z,982.205
2022-08-22T17:48:50.409Z,982.218
2022-08-22T17:50:50.350Z,982.247
2022-08-22T17:52:50.330Z,982.262
2022-08-22T17:54:50.253Z,982.272
2022-08-22T17:57:06.373Z,982.326
2022-08-22T17:58:50.234Z,982.346
2022-08-22T18:00:50.067Z,982.360
2022-08-22T18:02:50.137Z,982.338
2022-08-22T18:04:52.182Z,982.366
2022-08-22T18:06:56.700Z,982.378
2022-08-22T18:09:14.044Z,982.411
2022-08-22T18:10:50.175Z,982.411
2022-08-22T18:12:52.101Z,982.427
2022-08-22T18:14:49.977Z,982.412
2022-08-22T18:16:50.240Z,982.453
2022-08-22T18:18:50.142Z,982.468
2022-08-22T18:20:50.160Z,982.473
2022-08-22T18:22:50.048Z,982.488
2022-08-22T18:24:50.611Z,982.506
2022-08-22T18:26:49.925Z,982.530
2022-08-22T18:28:49.855Z,982.590
2022-08-22T18:30:50.311Z,982.600
2022-08-22T18:32:51.222Z,982.629
2022-08-22T18:34:49.878Z,982.652
2022-08-22T18:36:55.601Z,982.649
2022-08-22T18:38:50.020Z,982.660
2022-08-22T18:40:50.602Z,982.672
2022-08-22T18:42:50.811Z,982.672
2022-08-22T18:44:49.823Z,982.760
2022-08-22T18:46:52.460Z,982.813
2022-08-22T18:49:15.746Z,982.853
2022-08-22T18:50:50.188Z,982.864
2022-08-22T18:52:58.149Z,982.864
2022-08-22T18:54:50.787Z,982.951
2022-08-22T18:56:50.052Z,983.000
2022-08-22T18:59:06.334Z,982.983
2022-08-22T19:00:50.339Z,983.012
2022-08-22T19:03:00.151Z,983.034
2022-08-22T19:04:50.225Z,983.034
2022-08-22T19:06:50.384Z,983.091
2022-08-22T19:08:53.955Z,983.082
2022-08-22T19:10:49.921Z,983.057
2022-08-22T19:12:49.876Z,983.104
2022-08-22T19:14:50.823Z,983.115
2022-08-22T19:16:50.086Z,983.136
2022-08-22T19:18:49.996Z,983.155
2022-08-22T19:20:49.952Z,983.140
2022-08-22T19:22:51.514Z,983.168
2022-08-22T19:24:50.497Z,983.187
2022-08-22T19:26:50.685Z,983.199
2022-08-22T19:28:50.520Z,983.204
2022-08-22T19:30:50.646Z,983.257
2022-08-22T19:32:50.547Z,983.259
2022-08-22T19:34:50.187Z,983.273
2022-08-22T19:36:50.445Z,983.294
2022-08-22T19:38:50.705Z,983.286
2022-08-22T19:40:49.782Z,983.304
2022-08-22T19:42:50.763Z,983.331
2022-08-22T19:44:50.661Z,983.292
2022-08-22T19:46:49.876Z,983.321
2022-08-22T19:48:50.722Z,983.314
2022-08-22T19:50:50.763Z,983.331
2022-08-22T19:52:50.634Z,983.374
2022-08-22T19:54:51.482Z,983.389
2022-08-22T19:56:49.882Z,983.394
2022-08-22T19:58:50.671Z,983.389
2022-08-22T20:00:54.199Z,983.398
2022-08-22T20:02:50.569Z,983.439
2022-08-22T20:04:50.054Z,983.440
2022-08-22T20:06:50.613Z,983.463
2022-08-22T20:08:50.636Z,983.480
2022-08-22T20:10:50.571Z,983.479
2022-08-22T20:12:49.983Z,983.509
2022-08-22T20:14:49.918Z,983.535
2022-08-22T20:16:50.158Z,983.512
2022-08-22T20:19:09.374Z,983.494
2022-08-22T20:20:50.783Z,983.482
2022-08-22T20:22:53.284Z,983.448
2022-08-22T20:24:50.302Z,983.452
2022-08-22T20:27:14.232Z,983.438
2022-08-22T20:28:49.837Z,983.439
2022-08-22T20:30:50.696Z,983.468
2022-08-22T20:32:50.660Z,983.451
2022-08-22T20:34:51.974Z,983.420
2022-08-22T20:37:29.223Z,983.426
2022-08-22T20:38:56.352Z,983.460
2022-08-22T20:41:00.504Z,983.467
2022-08-22T20:42:50.926Z,983.482
2022-08-22T20:44:53.935Z,983.474
2022-08-22T20:46:55.783Z,983.462
2022-08-22T20:48:49.817Z,983.475
2022-08-22T20:50:49.948Z,983.455
2022-08-22T20:52:54.973Z,983.495
2022-08-22T20:54:50.052Z,983.450
2022-08-22T20:56:54.153Z,983.460
2022-08-22T20:58:50.127Z,983.458
2022-08-22T21:00:50.260Z,983.499
2022-08-22T21:02:50.270Z,983.515
2022-08-22T21:04:53.294Z,983.475
2022-08-22T21:06:50.334Z,983.484
2022-08-22T21:08:50.454Z,983.443
2022-08-22T21:10:50.301Z,983.427
2022-08-22T21:12:50.689Z,983.439
2022-08-22T21:14:50.577Z,983.484
2022-08-22T21:16:49.949Z,983.489
2022-08-22T21:18:50.047Z,983.506
2022-08-22T21:20:49.940Z,983.524
2022-08-22T21:22:49.922Z,983.525
2022-08-22T21:24:50.818Z,983.517
2022-08-22T21:26:49.974Z,983.542
2022-08-22T21:28:49.911Z,983.506
2022-08-22T21:30:49.876Z,983.546
2022-08-22T21:32:56.633Z,983.588
2022-08-22T21:34:50.378Z,983.664
2022-08-22T21:36:50.650Z,983.701
2022-08-22T21:38:50.703Z,983.691
2022-08-22T21:40:50.700Z,983.638
2022-08-22T21:42:49.814Z,983.663
2022-08-22T21:44:49.810Z,983.665
2022-08-22T21:46:52.779Z,983.653
2022-08-22T21:48:50.779Z,983.671
2022-08-22T21:50:50.722Z,983.671
2022-08-22T21:52:50.685Z,983.682
2022-08-22T21:54:50.733Z,983.651
2022-08-22T21:56:49.957Z,983.638
2022-08-22T21:58:51.834Z,983.612
2022-08-22T22:00:50.749Z,983.635
2022-08-22T22:02:50.744Z,983.663
2022-08-22T22:04:50.002Z,983.676
2022-08-22T22:06:50.252Z,983.667
2022-08-22T22:08:50.203Z,983.658
2022-08-22T22:10:50.123Z,983.641
2022-08-22T22:12:50.057Z,983.663
2022-08-22T22:14:49.844Z,983.653
2022-08-22T22:16:50.038Z,983.632
2022-08-22T22:18:50.781Z,983.610
2022-08-22T22:20:50.683Z,983.736
2022-08-22T22:22:50.677Z,983.720
2022-08-22T22:24:50.692Z,983.740
2022-08-22T22:26:50.059Z,983.785
2022-08-22T22:28:49.972Z,983.788
2022-08-22T22:30:49.879Z,983.785
2022-08-22T22:32:54.894Z,983.795
2022-08-22T22:34:50.440Z,983.845
2022-08-22T22:36:49.926Z,983.827
2022-08-22T22:38:52.284Z,983.888
2022-08-22T22:40:50.109Z,983.854
2022-08-22T22:42:50.134Z,983.872
2022-08-22T22:44:50.029Z,983.892
2022-08-22T22:46:50.137Z,983.847
2022-08-22T22:48:50.132Z,983.864
2022-08-22T22:50:50.298Z,983.858
2022-08-22T22:52:50.161Z,983.906
2022-08-22T22:54:50.524Z,983.855
2022-08-22T22:56:50.814Z,983.832
2022-08-22T22:59:12.759Z,983.841
2022-08-22T23:00:50.972Z,983.861
2022-08-22T23:02:50.426Z,983.815
2022-08-22T23:04:50.048Z,983.869
2022-08-22T23:06:50.291Z,983.897
2022-08-22T23:08:50.599Z,983.826
2022-08-22T23:10:50.352Z,983.849
2022-08-22T23:12:50.432Z,983.900
2022-08-22T23:14:52.546Z,983.834
2022-08-22T23:16:50.085Z,983.813
2022-08-22T23:18:49.830Z,983.867
2022-08-22T23:20:50.252Z,983.879
2022-08-22T23:22:49.979Z,983.867
2022-08-22T23:24:50.039Z,983.843
2022-08-22T23:26:50.177Z,983.867
2022-08-22T23:28:50.057Z,983.871
2022-08-22T23:30:49.942Z,983.918
2022-08-22T23:32:50.014Z,983.850
2022-08-22T23:34:50.356Z,983.850
2022-08-22T23:36:50.655Z,983.847
2022-08-22T23:38:50.453Z,983.868
2022-08-22T23:40:50.385Z,983.903
2022-08-22T23:42:50.417Z,983.929
2022-08-22T23:44:50.420Z,983.912
2022-08-22T23:46:50.719Z,983.914
2022-08-22T23:48:50.395Z,983.944
2022-08-22T23:50:50.342Z,983.956
2022-08-22T23:52:50.247Z,983.923
2022-08-22T23:54:56.118Z,983.914
2022-08-22T23:56:50.547Z,983.927
2022-08-22T23:58:53.591Z,983.935
